createdAt,value
2022-12-09T00:04:02.366Z,8.10
2022-12-09T00:09:07.515Z,12.23
2022-12-09T00:14:12.547Z,8.17
2022-12-09T00:19:15.927Z,8.23
2022-12-09T00:24:20.864Z,9.07
2022-12-09T00:29:24.156Z,6.80
2022-12-09T00:34:27.524Z,9.73
2022-12-09T00:39:32.255Z,7.47
2022-12-09T00:44:35.689Z,7.30
2022-12-09T00:49:39.450Z,7.37
2022-12-09T00:54:44.318Z,7.87
2022-12-09T00:59:47.703Z,6.47
2022-12-09T01:04:52.691Z,6.63
2022-12-09T01:09:57.722Z,5.67
2022-12-09T01:15:01.252Z,4.40
2022-12-09T01:20:05.548Z,4.03
2022-12-09T01:25:11.112Z,5.20
2022-12-09T01:30:15.950Z,4.17
2022-12-09T01:35:19.436Z,4.10
2022-12-09T01:40:24.313Z,4.60
2022-12-09T01:45:44.212Z,5.17
2022-12-09T01:50:53.524Z,4.37
2022-12-09T01:56:03.612Z,3.27
2022-12-09T02:01:08.495Z,3.73
2022-12-09T02:06:13.456Z,3.67
2022-12-09T02:11:30.127Z,4.50
2022-12-09T02:16:42.055Z,4.53
2022-12-09T02:21:54.997Z,4.87
2022-12-09T02:27:05.612Z,3.97
2022-12-09T02:32:39.172Z,2.67
2022-12-09T02:37:55.897Z,3.33
2022-12-09T02:43:03.363Z,3.60
2022-12-09T02:48:09.482Z,4.33
2022-12-09T02:53:15.879Z,4.20
2022-12-09T02:58:20.318Z,4.17
2022-12-09T03:03:24.478Z,6.83
2022-12-09T03:08:38.920Z,7.03
2022-12-09T03:13:50.631Z,6.27
2022-12-09T03:19:00.783Z,6.63
2022-12-09T03:24:09.781Z,6.00
2022-12-09T03:29:18.309Z,7.93
2022-12-09T03:34:26.860Z,6.33
2022-12-09T03:39:36.469Z,7.60
2022-12-09T03:44:43.857Z,8.00
2022-12-09T03:49:47.220Z,6.83
2022-12-09T03:54:56.756Z,6.97
2022-12-09T04:00:02.874Z,6.13
2022-12-09T04:05:16.158Z,5.97
2022-12-09T04:10:21.178Z,5.20
2022-12-09T04:15:24.452Z,5.17
2022-12-09T04:20:27.989Z,5.77
2022-12-09T04:25:32.830Z,4.33
2022-12-09T04:30:36.656Z,5.57
2022-12-09T04:35:40.042Z,5.47
2022-12-09T04:40:44.849Z,6.70
2022-12-09T04:45:48.538Z,6.50
2022-12-09T04:50:52.516Z,6.67
2022-12-09T04:56:02.386Z,4.50
2022-12-09T05:01:08.175Z,5.17
2022-12-09T05:06:14.194Z,4.20
2022-12-09T05:11:20.053Z,4.70
2022-12-09T05:16:24.318Z,5.60
2022-12-09T05:21:28.102Z,5.20
2022-12-09T05:26:32.857Z,5.70
2022-12-09T05:31:36.548Z,7.07
2022-12-09T05:36:40.548Z,4.67
2022-12-09T05:41:47.311Z,4.60
2022-12-09T05:46:50.759Z,4.10
2022-12-09T05:51:55.404Z,6.17
2022-12-09T05:57:01.446Z,5.30
2022-12-09T06:02:09.736Z,5.73
2022-12-09T06:07:14.143Z,5.23
2022-12-09T06:12:19.313Z,5.63
2022-12-09T06:17:22.940Z,5.43
2022-12-09T06:22:26.426Z,7.47
2022-12-09T06:27:31.424Z,5.27
2022-12-09T06:32:35.168Z,6.07
2022-12-09T06:37:38.658Z,5.87
2022-12-09T06:42:43.332Z,6.23
2022-12-09T06:47:47.393Z,6.90
2022-12-09T06:52:50.878Z,5.93
2022-12-09T06:57:55.746Z,5.83
2022-12-09T07:02:59.462Z,5.73
2022-12-09T07:08:03.690Z,6.23
2022-12-09T07:13:08.604Z,5.57
2022-12-09T07:18:12.100Z,5.27
2022-12-09T07:23:16.625Z,6.43
2022-12-09T07:28:21.586Z,7.90
2022-12-09T07:33:25.017Z,6.23
2022-12-09T07:38:28.654Z,6.17
2022-12-09T07:43:34.214Z,6.73
2022-12-09T07:48:37.638Z,7.93
2022-12-09T07:53:41.926Z,6.40
2022-12-09T07:58:48.941Z,7.70
2022-12-09T08:03:53.359Z,7.23
2022-12-09T08:08:59.641Z,6.87
2022-12-09T08:14:12.198Z,8.00
2022-12-09T08:19:16.945Z,6.37
2022-12-09T08:24:21.103Z,9.40
2022-12-09T08:29:25.922Z,8.10
2022-12-09T08:34:29.589Z,9.03
2022-12-09T08:39:33.779Z,8.47
2022-12-09T08:44:39.409Z,7.90
2022-12-09T08:49:42.965Z,6.10
2022-12-09T08:54:46.894Z,9.20
2022-12-09T08:59:51.864Z,10.53
2022-12-09T09:04:55.676Z,9.83
2022-12-09T09:10:01.482Z,8.63
2022-12-09T09:15:08.970Z,6.47
2022-12-09T09:20:13.546Z,10.43
2022-12-09T09:25:17.696Z,9.37
2022-12-09T09:30:22.731Z,9.73
2022-12-09T09:35:26.616Z,11.37
2022-12-09T09:40:31.128Z,13.33
2022-12-09T09:45:36.168Z,9.17
2022-12-09T09:50:45.562Z,9.93
2022-12-09T09:55:54.024Z,10.30
2022-12-09T10:01:04.257Z,10.73
2022-12-09T10:06:16.817Z,9.67
2022-12-09T10:11:28.144Z,9.53
2022-12-09T10:16:42.453Z,8.30
2022-12-09T10:21:47.469Z,7.70
2022-12-09T10:27:00.837Z,8.80
2022-12-09T10:32:05.933Z,7.07
2022-12-09T10:37:23.733Z,5.50
2022-12-09T10:42:45.561Z,7.13
2022-12-09T10:47:53.941Z,6.87
2022-12-09T10:52:58.626Z,8.13
2022-12-09T10:58:13.216Z,9.27
2022-12-09T11:03:29.724Z,6.37
2022-12-09T11:08:33.662Z,6.67
2022-12-09T11:13:43.341Z,5.97
2022-12-09T11:18:49.376Z,5.43
2022-12-09T11:24:02.585Z,4.57
2022-12-09T11:29:15.864Z,5.47
2022-12-09T11:34:24.233Z,5.43
2022-12-09T11:39:30.192Z,4.30
2022-12-09T11:44:35.174Z,4.93
2022-12-09T11:49:49.513Z,4.90
2022-12-09T11:54:58.982Z,5.33
2022-12-09T12:00:06.921Z,5.00
2022-12-09T12:05:22.468Z,5.20
2022-12-09T12:10:30.674Z,4.13
2022-12-09T12:15:41.934Z,4.87
2022-12-09T12:21:13.599Z,5.47
2022-12-09T12:26:23.114Z,4.80
2022-12-09T12:31:43.735Z,5.00
2022-12-09T12:37:08.031Z,4.10
2022-12-09T12:42:24.010Z,4.83
2022-12-09T12:47:34.771Z,5.23
2022-12-09T12:52:57.347Z,3.27
2022-12-09T12:58:11.344Z,4.03
2022-12-09T13:03:23.313Z,4.63
2022-12-09T13:08:36.173Z,2.93
2022-12-09T13:13:45.754Z,4.30
2022-12-09T13:18:50.352Z,4.40
2022-12-09T13:24:04.258Z,4.30
2022-12-09T13:29:17.631Z,2.90
2022-12-09T13:34:30.213Z,3.47
2022-12-09T13:39:58.350Z,2.70
2022-12-09T13:45:07.462Z,2.73
2022-12-09T13:50:25.779Z,3.40
2022-12-09T13:55:49.011Z,2.50
2022-12-09T14:01:07.896Z,2.53
2022-12-09T14:06:23.099Z,2.70
2022-12-09T14:11:48.708Z,3.50
2022-12-09T14:16:53.232Z,2.80
2022-12-09T14:22:29.943Z,4.43
2022-12-09T14:27:34.677Z,1.60
2022-12-09T14:32:54.405Z,1.70
2022-12-09T14:38:18.471Z,2.93
2022-12-09T14:43:53.011Z,2.27
2022-12-09T14:48:59.392Z,1.70
2022-12-09T14:54:05.946Z,2.23
2022-12-09T14:59:18.828Z,1.40
2022-12-09T15:04:30.719Z,2.03
2022-12-09T15:09:34.327Z,1.17
2022-12-09T15:14:40.353Z,1.20
2022-12-09T15:20:00.453Z,1.30
2022-12-09T15:25:05.113Z,6.93
2022-12-09T15:30:28.781Z,1.13
2022-12-09T15:35:34.480Z,1.27
2022-12-09T15:40:59.755Z,2.07
2022-12-09T15:46:05.977Z,1.13
2022-12-09T15:51:17.279Z,2.63
2022-12-09T15:56:27.148Z,4.70
2022-12-09T16:01:37.210Z,2.80
2022-12-09T16:06:41.703Z,1.67
2022-12-09T16:11:48.542Z,1.80
2022-12-09T16:16:58.915Z,1.67
2022-12-09T16:22:07.238Z,2.23
2022-12-09T16:27:18.282Z,2.87
2022-12-09T16:32:28.171Z,2.70
2022-12-09T16:37:40.009Z,2.70
2022-12-09T16:42:45.673Z,2.57
2022-12-09T16:47:55.633Z,2.87
2022-12-09T16:53:02.048Z,2.73
2022-12-09T16:58:06.960Z,3.33
2022-12-09T17:03:21.710Z,2.80
2022-12-09T17:08:26.454Z,2.37
2022-12-09T17:13:30.388Z,3.70
2022-12-09T17:18:38.069Z,3.10
2022-12-09T17:23:43.795Z,2.70
2022-12-09T17:28:50.480Z,4.07
2022-12-09T17:33:59.814Z,3.43
2022-12-09T17:39:07.166Z,3.30
2022-12-09T17:44:12.151Z,2.93
2022-12-09T17:49:19.053Z,4.00
2022-12-09T17:54:24.270Z,2.33
2022-12-09T17:59:29.687Z,3.57
2022-12-09T18:04:34.844Z,3.20
2022-12-09T18:09:40.579Z,3.60
2022-12-09T18:14:44.127Z,4.27
2022-12-09T18:19:49.670Z,3.03
2022-12-09T18:24:53.227Z,3.77
2022-12-09T18:29:58.500Z,2.63
2022-12-09T18:35:07.460Z,3.60
2022-12-09T18:40:13.018Z,3.00
2022-12-09T18:45:17.998Z,3.33
2022-12-09T18:50:23.354Z,3.93
2022-12-09T18:55:27.899Z,8.93
2022-12-09T19:00:32.956Z,5.53
2022-12-09T19:05:44.163Z,6.90
2022-12-09T19:10:56.409Z,5.57
2022-12-09T19:16:06.272Z,3.20
2022-12-09T19:21:18.541Z,2.87
2022-12-09T19:26:26.889Z,2.93
2022-12-09T19:31:34.382Z,2.83
2022-12-09T19:36:42.623Z,1.83
2022-12-09T19:41:48.320Z,2.10
2022-12-09T19:46:54.714Z,2.00
2022-12-09T19:52:06.658Z,2.33
2022-12-09T19:57:10.865Z,2.20
2022-12-09T20:02:17.417Z,1.87
2022-12-09T20:07:23.665Z,1.43
2022-12-09T20:12:32.161Z,3.43
2022-12-09T20:17:37.570Z,3.43
2022-12-09T20:22:45.247Z,1.70
2022-12-09T20:27:49.612Z,1.57
2022-12-09T20:32:54.834Z,2.10
2022-12-09T20:38:01.491Z,1.57
2022-12-09T20:43:13.018Z,1.70
2022-12-09T20:48:18.032Z,1.60
2022-12-09T20:53:25.662Z,1.40
2022-12-09T20:58:30.073Z,1.90
2022-12-09T21:03:34.652Z,2.30
2022-12-09T21:08:41.257Z,2.23
2022-12-09T21:13:47.762Z,1.80
2022-12-09T21:18:54.768Z,1.20
2022-12-09T21:24:04.063Z,1.50
2022-12-09T21:29:10.650Z,1.30
2022-12-09T21:34:14.838Z,1.10
2022-12-09T21:39:20.688Z,0.90
2022-12-09T21:44:25.864Z,2.13
2022-12-09T21:49:30.897Z,1.03
2022-12-09T21:54:35.882Z,1.60
2022-12-09T21:59:39.391Z,1.40
2022-12-09T22:04:43.445Z,1.53
2022-12-09T22:09:50.933Z,2.27
2022-12-09T22:14:55.962Z,1.57
2022-12-09T22:20:33.336Z,2.10
2022-12-09T22:25:24.598Z,2.23
2022-12-09T22:30:28.173Z,1.80
2022-12-09T22:35:31.546Z,1.47
2022-12-09T22:40:37.089Z,1.13
2022-12-09T22:45:40.385Z,1.50
2022-12-09T22:50:43.768Z,1.50
2022-12-09T22:55:49.298Z,2.50
2022-12-09T23:00:52.855Z,2.37
2022-12-09T23:05:56.222Z,1.90
2022-12-09T23:11:03.576Z,1.63
2022-12-09T23:16:09.350Z,2.20
2022-12-09T23:21:14.758Z,2.73
2022-12-09T23:26:21.065Z,1.93
2022-12-09T23:31:26.451Z,2.37
2022-12-09T23:36:32.065Z,3.00
2022-12-09T23:41:37.480Z,1.60
2022-12-09T23:46:41.174Z,1.67
2022-12-09T23:51:44.970Z,2.30
2022-12-09T23:56:50.899Z,1.57
